Flight Track Log - Related Links

Times and Time Zones

All times are in EDT time to prevent confusion due to time zone crossing. See the N658FE flight status page for this flight to view local times or setup timezone preferences in your user account.

Time Position Orientation Groundspeed Altitude Reporting Facility
EDT Latitude Longitude Course Direction KTS MPH feet Rate Location/Type
Thu 10:05:52 AM 47.6010 -122.3560 315° West 9,900  Level FlightAware ADS-B
Thu 10:06:07 AM 47.6100 -122.3810 298° West 11,200 766 Climbing FlightAware ADS-B
Thu 10:06:17 AM 47.6120 -122.3990 279° West 12,000 735 Climbing FlightAware ADS-B
Thu 10:06:47 AM 47.6000 -122.4500 251° West 14,000 715 Climbing FlightAware ADS-B
Thu 10:07:27 AM 47.5610 -122.5170 229° Southwest 15,200 668 Climbing FlightAware ADS-B
Thu 10:08:17 AM 47.5000 -122.6190 229° Southwest 17,700 645 Climbing FlightAware ADS-B
Thu 10:08:57 AM 47.4510 -122.7000 228° Southwest 20,000 586 Climbing FlightAware ADS-B
Thu 10:09:37 AM 47.3990 -122.7860 228° Southwest 22,100 527 Climbing FlightAware ADS-B
Thu 10:10:22 AM 47.3410 -122.8810 228° Southwest 24,200 471 Climbing FlightAware ADS-B
Thu 10:11:22 AM 47.2550 -123.0190 227° Southwest 26,700 415 Climbing FlightAware ADS-B
Thu 10:12:12 AM 47.1650 -123.1070 214° Southwest 28,400 345 Climbing FlightAware ADS-B
Thu 10:12:52 AM 47.0790 -123.1520 200° South 30,400 296 Climbing FlightAware ADS-B
Thu 10:13:32 AM 46.9950 -123.1800 193° South 32,100 233 Climbing FlightAware ADS-B
Thu 10:14:17 AM 46.8960 -123.1940 186° South 33,800 177 Climbing FlightAware ADS-B
Thu 10:14:52 AM 46.8250 -123.1900 178° South 34,600 119 Climbing FlightAware ADS-B
Thu 10:15:32 AM 46.7290 -123.1800 176° South 35,500 91 Climbing FlightAware ADS-B
Thu 10:16:22 AM 46.6030 -123.1660 176° South 36,800 58 Climbing FlightAware ADS-B
Thu 10:17:07 AM 46.5010 -123.1550 176° South 37,000 Climbing FlightAware ADS-B
Thu 10:17:47 AM 46.4070 -123.1450 176° South 37,000  Level FlightAware ADS-B
Thu 10:18:32 AM 46.3030 -123.1330 175° South 37,000  Level FlightAware ADS-B
Thu 10:19:12 AM 46.2080 -123.1230 176° South 37,000  Level FlightAware ADS-B
Thu 10:19:52 AM 46.1160 -123.1130 176° South 37,000  Level FlightAware ADS-B
Thu 10:20:32 AM 46.0250 -123.1040 176° South 37,000  Level FlightAware ADS-B
Thu 10:21:17 AM 45.9230 -123.0930 176° South 37,000  Level FlightAware ADS-B
Thu 10:22:02 AM 45.8160 -123.0810 176° South 37,000  Level FlightAware ADS-B
Thu 10:22:37 AM 45.7360 -123.0730 176° South 37,000  Level FlightAware ADS-B
Thu 10:23:22 AM 45.6290 -123.0610 176° South 37,000  Level FlightAware ADS-B
Thu 10:24:07 AM 45.5310 -123.0510 176° South 37,000  Level FlightAware ADS-B
Thu 10:24:47 AM 45.4380 -123.0410 176° South 37,000  Level FlightAware ADS-B
Thu 10:25:27 AM 45.3430 -123.0310 176° South 37,000  Level FlightAware ADS-B
Thu 10:26:12 AM 45.2390 -123.0200 176° South 37,000  Level FlightAware ADS-B
Thu 10:26:52 AM 45.1440 -123.0110 176° South 37,000  Level FlightAware ADS-B
Thu 10:27:37 AM 45.0410 -123.0000 176° South 37,000  Level FlightAware ADS-B
Thu 10:28:17 AM 44.9500 -122.9910 176° South 37,000  Level FlightAware ADS-B
Thu 10:29:02 AM 44.8470 -122.9800 176° South 37,000  Level FlightAware ADS-B
Thu 10:29:42 AM 44.7550 -122.9700 176° South 37,000  Level FlightAware ADS-B
Thu 10:30:22 AM 44.6640 -122.9610 176° South 37,000  Level FlightAware ADS-B
Thu 10:31:07 AM 44.5580 -122.9500 176° South 37,000  Level FlightAware ADS-B
Thu 10:31:47 AM 44.4670 -122.9410 176° South 37,000  Level FlightAware ADS-B
Thu 10:32:27 AM 44.3740 -122.9390 179° South 37,000  Level FlightAware ADS-B
Thu 10:33:12 AM 44.2720 -122.9370 179° South 37,000  Level FlightAware ADS-B
Thu 10:33:57 AM 44.1710 -122.9340 179° South 37,000  Level FlightAware ADS-B
Thu 10:34:37 AM 44.0760 -122.9320 179° South 37,000  Level FlightAware ADS-B
Thu 10:35:17 AM 43.9840 -122.9290 179° South 37,000  Level FlightAware ADS-B
Thu 10:35:57 AM 43.8940 -122.9260 179° South 37,000  Level FlightAware ADS-B
Thu 10:36:37 AM 43.8030 -122.9230 179° South 37,000  Level FlightAware ADS-B
Thu 10:37:17 AM 43.7170 -122.9210 179° South 37,000  Level FlightAware ADS-B
Thu 10:38:07 AM 43.6010 -122.9170 179° South 37,000  Level FlightAware ADS-B
Thu 10:38:47 AM 43.5140 -122.9150 179° South 37,000  Level FlightAware ADS-B
Thu 10:39:32 AM 43.4090 -122.9110 178° South 37,000  Level FlightAware ADS-B
Thu 10:40:12 AM 43.3190 -122.9070 178° South 37,000  Level FlightAware ADS-B
Thu 10:40:57 AM 43.2220 -122.9010 177° South 37,000  Level FlightAware ADS-B
Thu 10:41:14 AM 43.1850 -122.8964 177° South 485 558 37,000  Level Seattle Center
Thu 10:42:15 AM 43.0500 -122.8878 177° South 485 558 37,000  Level Seattle Center
Thu 10:43:16 AM 42.9164 -122.8814 178° South 480 552 37,000  Level Seattle Center
Thu 10:44:17 AM 42.7828 -122.8739 178° South 479 551 37,000  Level Seattle Center
Thu 10:45:18 AM 42.6614 -122.8675 178° South 476 548 37,000  Level Seattle Center
Thu 10:46:19 AM 42.5289 -122.8606 178° South 477 549 37,000  Level Seattle Center
Thu 10:47:20 AM 42.3703 -122.8519 178° South 476 548 37,000  Level Seattle Center
Thu 10:48:21 AM 42.2394 -122.8447 178° South 474 545 37,000 -800 Level Seattle Center
Thu 10:54:22 AM 41.4470 -122.7980 178° South 37,000 -818 Level FlightAware ADS-B
Thu 10:56:07 AM 41.2280 -122.7820 177° South 37,000 -945 Level FlightAware ADS-B
Thu 10:56:57 AM 41.1210 -122.7740 177° South 37,000 -989 Level FlightAware ADS-B
Thu 10:57:42 AM 41.0220 -122.7660 177° South 37,000 -1,012 Level FlightAware ADS-B
Thu 10:58:22 AM 40.9350 -122.7600 177° South 37,000 -1,033 Level FlightAware ADS-B
Thu 10:58:57 AM 40.8570 -122.7550 177° South 37,000 -1,053 Level FlightAware ADS-B
Thu 10:59:47 AM 40.7490 -122.7470 177° South 37,000 -1,071 Level FlightAware ADS-B
Thu 11:00:32 AM 40.6530 -122.7400 177° South 37,000 -1,097 Level FlightAware ADS-B
Thu 11:01:12 AM 40.5620 -122.7330 177° South 37,000 -1,123 Level FlightAware ADS-B
Thu 11:01:52 AM 40.4770 -122.7270 177° South 37,000 -1,146 Level FlightAware ADS-B
Thu 11:02:32 AM 40.3870 -122.7210 177° South 37,000 -1,170 Level FlightAware ADS-B
Thu 11:03:17 AM 40.2890 -122.7140 177° South 37,000 -1,195 Level FlightAware ADS-B
Thu 11:04:17 AM 40.1580 -122.7050 177° South 37,000 -1,225 Level FlightAware ADS-B
Thu 11:04:57 AM 40.0700 -122.6980 177° South 37,000 -1,268 Level FlightAware ADS-B
Thu 11:05:37 AM 39.9850 -122.6920 177° South 37,000 -1,297 Level FlightAware ADS-B
Thu 11:06:12 AM 39.9070 -122.6870 177° South 37,000 -1,329 Level FlightAware ADS-B
Thu 11:07:02 AM 39.8000 -122.6790 177° South 37,000 -1,357 Level FlightAware ADS-B
Thu 11:07:57 AM 39.6800 -122.6710 177° South 36,600 -1,400 Descending FlightAware ADS-B
Thu 11:08:37 AM 39.5910 -122.6640 177° South 35,400 -1,435 Descending FlightAware ADS-B
Thu 11:09:22 AM 39.4990 -122.6580 177° South 33,600 -1,425 Descending FlightAware ADS-B
Thu 11:10:07 AM 39.3900 -122.6510 177° South 31,800 -1,395 Descending FlightAware ADS-B
Thu 11:10:47 AM 39.3060 -122.6450 177° South 30,400 -1,362 Descending FlightAware ADS-B
Thu 11:11:27 AM 39.2260 -122.6390 177° South 29,000 -1,340 Descending FlightAware ADS-B
Thu 11:12:12 AM 39.1350 -122.6330 177° South 27,500 -1,317 Descending FlightAware ADS-B
Thu 11:12:52 AM 39.0600 -122.6280 177° South 26,200 -1,293 Descending FlightAware ADS-B
Thu 11:13:32 AM 38.9830 -122.6230 177° South 24,700 -1,271 Descending FlightAware ADS-B
Thu 11:14:17 AM 38.9020 -122.6170 177° South 23,300 -1,238 Descending FlightAware ADS-B
Thu 11:14:57 AM 38.8320 -122.6120 177° South 22,000 -1,214 Descending FlightAware ADS-B
Thu 11:15:42 AM 38.7510 -122.6070 177° South 20,400 -1,187 Descending FlightAware ADS-B
Thu 11:16:22 AM 38.6780 -122.6020 177° South 18,800 -1,147 Descending FlightAware ADS-B
Thu 11:17:07 AM 38.5990 -122.5960 177° South 16,700 -1,097 Descending FlightAware ADS-B
Thu 11:17:47 AM 38.5220 -122.5910 177° South 14,300 -1,019 Descending FlightAware ADS-B
Thu 11:18:27 AM 38.4480 -122.5870 178° South 12,100 -908 Descending FlightAware ADS-B
Thu 11:19:12 AM 38.3680 -122.5810 177° South 10,700 -800 Descending FlightAware ADS-B
Thu 11:19:52 AM 38.3060 -122.5770 177° South 10,200 -744 Descending FlightAware ADS-B
Thu 11:20:22 AM 38.2640 -122.5740 177° South 9,700 -743 Descending FlightAware ADS-B
Thu 11:20:47 AM 38.2320 -122.5720 177° South 9,100 -734 Descending FlightAware ADS-B
Thu 11:21:17 AM 38.1920 -122.5690 177° South 8,400 -710 Descending FlightAware ADS-B
Thu 11:21:42 AM 38.1590 -122.5670 177° South 7,900 -681 Descending FlightAware ADS-B
Thu 11:22:12 AM 38.1210 -122.5640 176° South 7,300 -663 Descending FlightAware ADS-B
Thu 11:22:42 AM 38.0850 -122.5480 161° South 6,500 -639 Descending FlightAware ADS-B
Thu 11:22:52 AM 38.0740 -122.5390 147° Southeast 6,200 -593 Descending FlightAware ADS-B
Thu 11:23:22 AM 38.0420 -122.5110 145° Southeast 5,800 -574 Descending FlightAware ADS-B
Thu 11:23:52 AM 38.0110 -122.4820 144° Southeast 5,800 -563 Level FlightAware ADS-B
Thu 11:24:17 AM 37.9870 -122.4580 142° Southeast 5,700 -593 Descending FlightAware ADS-B
Thu 11:24:47 AM 37.9640 -122.4170 125° Southeast 5,000 -609 Descending FlightAware ADS-B
Thu 11:25:12 AM 37.9460 -122.3830 124° Southeast 4,800 -563 Descending FlightAware ADS-B
Thu 11:25:27 AM 37.9360 -122.3640 124° Southeast 4,800 -567 Level FlightAware ADS-B
Thu 11:25:57 AM 37.9130 -122.3230 125° Southeast 4,800 -585 Level FlightAware ADS-B
Thu 11:26:27 AM 37.8920 -122.2840 124° Southeast 4,800 -624 Level FlightAware ADS-B
Thu 11:26:52 AM 37.8730 -122.2500 125° Southeast 4,800 -670 Level FlightAware ADS-B
Thu 11:27:22 AM 37.8520 -122.2110 124° Southeast 4,800 -713 Level FlightAware ADS-B
Thu 11:27:47 AM 37.8310 -122.1800 131° Southeast 4,600 -773 Descending FlightAware ADS-B
Thu 11:28:02 AM 37.8170 -122.1610 133° Southeast 4,200 -795 Descending FlightAware ADS-B
Thu 11:28:32 AM 37.7910 -122.1280 135° Southeast 3,900 -757 Descending FlightAware ADS-B
Thu 11:28:57 AM 37.7720 -122.1050 136° Southeast 3,500 -774 Descending FlightAware ADS-B
Thu 11:29:27 AM 37.7480 -122.0750 135° Southeast 3,200 -756 Descending FlightAware ADS-B
Thu 11:29:57 AM 37.7230 -122.0510 143° Southeast 3,100 -776 Descending FlightAware ADS-B
Thu 11:30:37 AM 37.6880 -122.0680 201° Southwest 2,800 -861 Descending FlightAware ADS-B
Thu 11:31:07 AM 37.6680 -122.0860 215° Southwest 2,600 -963 Descending FlightAware ADS-B
Thu 11:31:17 AM 37.6580 -122.0990 226° Southwest 2,300 -1,091 Descending FlightAware ADS-B
Thu 11:31:27 AM 37.6550 -122.1090 249° West 2,200 -1,033 Descending FlightAware ADS-B
Thu 11:32:02 AM 37.6520 -122.1360 262° West 1,800 -1,071 Descending FlightAware ADS-B
Thu 11:32:12 AM 37.6610 -122.1540 302° West 1,700 -1,247 Descending FlightAware ADS-B
Thu 11:32:57 AM 37.6850 -122.1890 311° West 500 -1,343 Descending FlightAware ADS-B
Thu 11:33:19 AM 37.7000 -122.2000 311° West 159 183 200 5,270 Descending Northern Cal TRACON
Thu 11:34:11 AM 37.7111 -122.2281 297° West 134 154 7,000 7,846 Climbing Oakland Center

Login

Don't have an account? Register now (free) for customized features, flight alerts, and more!